Time;durP1;ratioP1;P1;durP2;ratioP2;P2;SDS_P1;SDS_P2;PMS_P1;PMS_P2;Temp;Humidity;BMP_temperature;BMP_pressure;BME280_temperature;BME280_humidity;BME280_pressure;Samples;Min_cycle;Max_cycle;Signal;HPM_P1;HPM_P2
2021/07/19 00:00:26;;;;;;;10.27;8.13;;;16.70;99.90;;;;;;5036002;28;20507;-66
2021/07/19 00:02:56;;;;;;;11.20;9.03;;;16.70;99.90;;;;;;5035771;28;20429;-66
2021/07/19 00:05:25;;;;;;;9.90;7.20;;;16.60;99.90;;;;;;5035855;28;20516;-66
2021/07/19 00:07:52;;;;;;;8.63;7.03;;;16.60;99.90;;;;;;5035630;28;20523;-67
2021/07/19 00:10:20;;;;;;;10.90;7.67;;;16.60;99.90;;;;;;5035530;28;20500;-66
2021/07/19 00:12:50;;;;;;;11.27;8.27;;;16.60;99.90;;;;;;5035766;28;20499;-66
2021/07/19 00:15:19;;;;;;;8.73;7.83;;;16.50;99.90;;;;;;5035444;28;20879;-67
2021/07/19 00:17:46;;;;;;;7.23;6.00;;;16.50;99.90;;;;;;5035469;28;20465;-67
2021/07/19 00:20:16;;;;;;;7.17;4.97;;;16.40;99.90;;;;;;5035488;28;20505;-67
2021/07/19 00:22:43;;;;;;;5.70;4.77;;;16.40;99.90;;;;;;5035355;28;20442;-68
2021/07/19 00:25:13;;;;;;;7.67;6.20;;;16.30;99.90;;;;;;5035499;28;20483;-68
2021/07/19 00:27:41;;;;;;;7.03;5.70;;;16.30;99.90;;;;;;5035267;28;20489;-69
2021/07/19 00:30:11;;;;;;;10.83;8.03;;;16.30;99.90;;;;;;5035467;28;20492;-67
2021/07/19 00:32:38;;;;;;;13.17;9.27;;;16.30;99.90;;;;;;5035294;28;20945;-67
2021/07/19 00:35:06;;;;;;;10.97;8.77;;;16.20;99.90;;;;;;5035281;28;20917;-68
2021/07/19 00:37:35;;;;;;;10.80;9.10;;;16.20;99.90;;;;;;5035117;28;20491;-68
2021/07/19 00:40:04;;;;;;;13.33;8.67;;;16.20;99.90;;;;;;5035094;28;20437;-68
2021/07/19 00:42:31;;;;;;;9.30;8.37;;;16.20;99.90;;;;;;5035193;28;20442;-67
2021/07/19 00:44:58;;;;;;;16.60;8.13;;;16.20;99.90;;;;;;5035275;28;20446;-68
2021/07/19 00:47:26;;;;;;;11.30;8.93;;;16.20;99.90;;;;;;5034348;28;20918;-69
2021/07/19 00:49:53;;;;;;;9.70;8.30;;;16.20;99.90;;;;;;5034928;28;20434;-68
2021/07/19 00:52:20;;;;;;;10.20;7.93;;;16.20;99.90;;;;;;5035100;28;20833;-68
2021/07/19 00:54:49;;;;;;;5.57;4.80;;;16.20;99.90;;;;;;5034976;28;20649;-67
2021/07/19 00:57:17;;;;;;;9.30;7.47;;;16.20;99.90;;;;;;5034927;28;20438;-67
2021/07/19 00:59:46;;;;;;;12.20;7.50;;;16.20;99.90;;;;;;5035008;28;20446;-68
2021/07/19 01:02:14;;;;;;;9.40;8.17;;;16.10;99.90;;;;;;5034607;28;20936;-67
2021/07/19 01:04:42;;;;;;;7.37;5.93;;;16.10;99.90;;;;;;5034868;28;20532;-67
2021/07/19 01:07:11;;;;;;;8.33;6.93;;;16.00;99.90;;;;;;5034734;28;20493;-68
2021/07/19 01:09:38;;;;;;;8.83;7.50;;;16.00;99.90;;;;;;5034594;28;20441;-68
2021/07/19 01:12:08;;;;;;;8.80;6.67;;;16.00;99.90;;;;;;5034553;28;20524;-68
2021/07/19 01:14:35;;;;;;;12.47;7.37;;;16.00;99.90;;;;;;5034682;28;20433;-68
2021/07/19 01:17:02;;;;;;;7.80;6.17;;;16.00;99.90;;;;;;5034462;28;20767;-68
2021/07/19 01:19:33;;;;;;;10.60;8.23;;;16.00;99.90;;;;;;5034042;28;20461;-68
2021/07/19 01:22:43;;;;;;;10.90;8.10;;;16.00;99.90;;;;;;5034312;28;20434;-68
2021/07/19 01:25:32;;;;;;;11.30;7.30;;;16.00;99.90;;;;;;5034356;28;20461;-67
2021/07/19 01:28:15;;;;;;;8.13;6.80;;;16.00;99.90;;;;;;5034334;28;20493;-68
2021/07/19 01:30:45;;;;;;;8.20;6.50;;;16.00;99.90;;;;;;5034229;28;20438;-69
2021/07/19 01:33:14;;;;;;;9.37;7.47;;;16.00;99.90;;;;;;5045093;28;20433;-68
2021/07/19 01:35:44;;;;;;;7.73;6.90;;;15.90;99.90;;;;;;5054146;28;20459;-67
2021/07/19 01:38:13;;;;;;;7.63;6.83;;;15.90;99.90;;;;;;5054053;28;20526;-68
2021/07/19 01:40:41;;;;;;;7.70;6.63;;;15.80;99.90;;;;;;5053773;28;20528;-68
2021/07/19 01:43:10;;;;;;;7.40;5.97;;;15.80;99.90;;;;;;5053939;28;20437;-68
2021/07/19 01:45:38;;;;;;;7.83;6.70;;;15.80;99.90;;;;;;5053897;28;20429;-68
2021/07/19 01:48:09;;;;;;;7.07;6.37;;;15.80;99.90;;;;;;5053659;28;20484;-67
2021/07/19 01:50:37;;;;;;;7.80;7.00;;;15.70;99.90;;;;;;5053832;28;20441;-67
2021/07/19 01:53:06;;;;;;;6.77;5.67;;;15.70;99.90;;;;;;5053576;28;20441;-68
2021/07/19 01:55:34;;;;;;;5.53;5.03;;;15.70;99.90;;;;;;5053774;28;20844;-67
2021/07/19 01:58:02;;;;;;;7.83;5.37;;;15.60;99.90;;;;;;5053518;28;20523;-67
2021/07/19 02:00:31;;;;;;;9.67;5.70;;;15.60;99.90;;;;;;5053529;28;20502;-67
2021/07/19 02:02:58;;;;;;;7.37;6.03;;;15.60;99.90;;;;;;5053422;28;20765;-67
2021/07/19 02:05:27;;;;;;;7.20;5.70;;;15.60;99.90;;;;;;5053475;28;20476;-68
2021/07/19 02:07:57;;;;;;;8.80;6.60;;;15.50;99.90;;;;;;5053453;28;20484;-67
2021/07/19 02:10:24;;;;;;;11.60;7.90;;;15.50;99.90;;;;;;5053152;28;20436;-68
2021/07/19 02:12:55;;;;;;;8.70;7.00;;;15.50;99.90;;;;;;5053573;28;20440;-67
2021/07/19 02:15:22;;;;;;;9.00;7.50;;;15.50;99.90;;;;;;5053160;28;20777;-68
2021/07/19 02:17:51;;;;;;;9.33;6.83;;;15.50;99.90;;;;;;5052896;28;20464;-69
2021/07/19 02:20:20;;;;;;;24.40;8.97;;;15.50;99.90;;;;;;5053283;28;20444;-68
2021/07/19 02:22:49;;;;;;;8.60;7.03;;;15.40;99.90;;;;;;5053072;28;20452;-68
2021/07/19 02:25:17;;;;;;;8.07;6.60;;;15.40;99.90;;;;;;5053313;28;20440;-68
2021/07/19 02:27:46;;;;;;;11.57;7.10;;;15.30;99.90;;;;;;5052981;28;21262;-69
2021/07/19 02:30:16;;;;;;;12.10;6.87;;;15.30;99.90;;;;;;5053119;28;20477;-67
2021/07/19 02:32:44;;;;;;;9.70;7.20;;;15.30;99.90;;;;;;5046088;28;20775;-67
2021/07/19 02:35:13;;;;;;;8.90;7.23;;;15.30;99.90;;;;;;5033139;28;20448;-67
2021/07/19 02:37:42;;;;;;;7.50;6.57;;;15.20;99.90;;;;;;5032962;28;20448;-67
2021/07/19 02:40:14;;;;;;;8.37;6.67;;;15.30;99.90;;;;;;5033032;28;20500;-67
2021/07/19 02:42:43;;;;;;;7.20;6.50;;;15.20;99.90;;;;;;5033025;28;20810;-67
2021/07/19 02:45:14;;;;;;;7.37;6.67;;;15.20;99.90;;;;;;5032720;28;21002;-67
2021/07/19 02:47:42;;;;;;;9.40;6.77;;;15.20;99.90;;;;;;5032699;28;20477;-67
2021/07/19 02:50:10;;;;;;;5.87;5.20;;;15.20;99.90;;;;;;5032790;28;20445;-67
2021/07/19 02:52:38;;;;;;;6.43;5.27;;;15.20;99.90;;;;;;5032713;28;20442;-67
2021/07/19 02:55:07;;;;;;;5.70;4.97;;;15.10;99.90;;;;;;5032565;28;20496;-67
2021/07/19 02:57:37;;;;;;;6.13;4.23;;;15.10;99.90;;;;;;5032847;28;20433;-67
2021/07/19 03:00:07;;;;;;;5.53;4.93;;;15.10;99.90;;;;;;5032744;28;20504;-67
2021/07/19 03:02:39;;;;;;;4.97;4.37;;;15.10;99.90;;;;;;5032672;28;20437;-67
2021/07/19 03:05:08;;;;;;;6.17;4.57;;;15.10;99.90;;;;;;5032504;28;20438;-67
2021/07/19 03:07:37;;;;;;;6.87;4.50;;;15.10;99.90;;;;;;5032359;28;20441;-67
2021/07/19 03:10:08;;;;;;;9.57;5.63;;;15.10;99.90;;;;;;5032012;28;20504;-67
2021/07/19 03:12:38;;;;;;;7.23;5.17;;;15.10;99.90;;;;;;5032520;28;20525;-67
2021/07/19 03:15:07;;;;;;;7.30;5.37;;;15.10;99.90;;;;;;5032528;28;20500;-68
2021/07/19 03:17:38;;;;;;;7.00;4.77;;;15.00;99.90;;;;;;5032151;28;20438;-67
2021/07/19 03:20:07;;;;;;;4.70;3.90;;;15.00;99.90;;;;;;5032400;28;20452;-67
2021/07/19 03:22:38;;;;;;;5.27;4.57;;;15.00;99.90;;;;;;5032333;28;20473;-67
2021/07/19 03:25:08;;;;;;;7.90;4.90;;;15.00;99.90;;;;;;5032264;28;20433;-67
2021/07/19 03:27:37;;;;;;;6.10;5.10;;;15.00;99.90;;;;;;5032266;28;20940;-67
2021/07/19 03:30:05;;;;;;;10.00;6.63;;;15.00;99.90;;;;;;5032416;28;20488;-67
2021/07/19 03:32:33;;;;;;;6.73;4.80;;;15.00;99.90;;;;;;5037679;28;20429;-67
2021/07/19 03:35:02;;;;;;;7.77;5.50;;;15.00;99.90;;;;;;5051932;28;20518;-67
2021/07/19 03:37:29;;;;;;;7.30;5.67;;;15.00;99.90;;;;;;5052083;28;20437;-67
2021/07/19 03:39:57;;;;;;;6.77;5.57;;;15.00;99.90;;;;;;5052242;28;20449;-68
2021/07/19 03:42:25;;;;;;;8.90;5.00;;;15.00;99.90;;;;;;5052290;28;20467;-68
2021/07/19 03:44:54;;;;;;;7.13;5.13;;;15.00;99.90;;;;;;5051930;28;20942;-67
2021/07/19 03:47:22;;;;;;;6.63;5.07;;;15.00;99.90;;;;;;5052023;28;20437;-68
2021/07/19 03:49:50;;;;;;;6.27;5.23;;;15.00;99.90;;;;;;5052001;28;20479;-67
2021/07/19 03:52:18;;;;;;;4.80;3.77;;;15.00;99.90;;;;;;5044399;28;20425;-66
2021/07/19 03:54:45;;;;;;;7.03;4.33;;;14.90;99.90;;;;;;5032276;28;20480;-67
2021/07/19 03:57:14;;;;;;;3.87;3.33;;;14.80;99.90;;;;;;5032030;28;20521;-67
2021/07/19 03:59:41;;;;;;;6.40;4.63;;;14.80;99.90;;;;;;5032123;28;20536;-67
2021/07/19 04:02:13;;;;;;;5.47;4.53;;;14.80;99.90;;;;;;5032021;28;20441;-66
2021/07/19 04:04:45;;;;;;;6.40;4.63;;;14.80;99.90;;;;;;5032404;28;20464;-67
2021/07/19 04:07:14;;;;;;;5.43;4.60;;;14.80;99.90;;;;;;5032288;28;20512;-67
2021/07/19 04:09:42;;;;;;;6.50;5.30;;;14.80;99.90;;;;;;5032043;28;20481;-67
2021/07/19 04:12:10;;;;;;;6.90;5.83;;;14.80;99.90;;;;;;5032147;28;20928;-66
2021/07/19 04:14:38;;;;;;;6.63;5.13;;;14.80;99.90;;;;;;5032159;28;20499;-67
2021/07/19 04:17:13;;;;;;;5.93;4.73;;;14.80;99.90;;;;;;5032124;28;20441;-67
2021/07/19 04:19:43;;;;;;;6.23;4.50;;;14.80;99.90;;;;;;5031945;28;20716;-67
2021/07/19 04:22:11;;;;;;;7.43;5.70;;;14.90;99.90;;;;;;5033713;28;20495;-67
2021/07/19 04:24:38;;;;;;;5.37;4.83;;;14.80;99.90;;;;;;5035854;28;20437;-67
2021/07/19 04:27:06;;;;;;;6.50;5.03;;;14.80;99.90;;;;;;5035781;28;20456;-66
2021/07/19 04:29:33;;;;;;;12.20;6.07;;;14.90;99.90;;;;;;5035654;28;20572;-67
2021/07/19 04:32:00;;;;;;;7.77;5.30;;;14.90;99.90;;;;;;5035439;28;20722;-66
2021/07/19 04:34:30;;;;;;;9.77;6.53;;;14.90;99.90;;;;;;5035790;28;20441;-67
2021/07/19 04:37:02;;;;;;;8.93;5.63;;;14.90;99.90;;;;;;5035356;28;20978;-67
2021/07/19 04:39:30;;;;;;;8.57;5.90;;;14.90;99.90;;;;;;5035628;28;20437;-67
2021/07/19 04:41:58;;;;;;;6.50;5.50;;;14.90;99.90;;;;;;5035237;28;20947;-66
2021/07/19 04:44:25;;;;;;;6.23;5.40;;;15.00;99.90;;;;;;5035201;28;20488;-67
2021/07/19 04:46:53;;;;;;;6.13;5.30;;;15.00;99.90;;;;;;5035286;28;20495;-67
2021/07/19 04:49:21;;;;;;;7.37;5.10;;;15.10;99.90;;;;;;5035221;28;20492;-67
2021/07/19 04:51:49;;;;;;;7.47;6.77;;;15.10;99.90;;;;;;5035390;28;20438;-67
2021/07/19 04:54:21;;;;;;;6.57;5.90;;;15.10;99.90;;;;;;5035182;28;20560;-66
2021/07/19 04:56:59;;;;;;;7.40;5.80;;;15.20;99.90;;;;;;5036862;28;20448;-66
2021/07/19 04:59:30;;;;;;;8.17;6.53;;;15.30;99.90;;;;;;5055234;28;20981;-67
2021/07/19 05:01:59;;;;;;;7.03;6.33;;;15.40;99.90;;;;;;5055100;28;20507;-68
2021/07/19 05:04:28;;;;;;;7.20;5.60;;;15.50;99.90;;;;;;5054908;28;20796;-68
2021/07/19 05:06:59;;;;;;;7.87;6.60;;;15.50;99.90;;;;;;5054976;28;20433;-68
2021/07/19 05:09:27;;;;;;;8.90;6.80;;;15.60;99.90;;;;;;5049516;28;21006;-68
2021/07/19 05:11:56;;;;;;;6.80;5.97;;;15.70;99.90;;;;;;5034941;28;20464;-68
2021/07/19 05:14:23;;;;;;;7.50;6.13;;;15.80;99.90;;;;;;5034825;28;20521;-68
2021/07/19 05:16:50;;;;;;;7.40;6.67;;;15.80;99.90;;;;;;5043484;28;20437;-68
2021/07/19 05:19:18;;;;;;;6.70;6.00;;;15.90;99.90;;;;;;5054494;28;20468;-68
2021/07/19 05:21:45;;;;;;;6.20;5.60;;;16.00;99.90;;;;;;5048743;28;20434;-71
2021/07/19 05:24:14;;;;;;;7.80;6.20;;;16.10;99.90;;;;;;5044013;28;20550;-67
2021/07/19 05:26:41;;;;;;;9.37;7.20;;;16.10;99.90;;;;;;5053641;28;20444;-68
2021/07/19 05:29:08;;;;;;;7.70;6.33;;;16.20;99.90;;;;;;5042371;28;20473;-68
2021/07/19 05:31:36;;;;;;;7.10;6.40;;;16.30;99.90;;;;;;5053783;28;20919;-68
2021/07/19 05:34:03;;;;;;;13.53;6.57;;;16.40;99.90;;;;;;5035978;28;20436;-68
2021/07/19 05:36:33;;;;;;;9.90;7.83;;;16.50;99.90;;;;;;5039105;28;20441;-68
2021/07/19 05:39:03;;;;;;;9.73;7.70;;;16.60;99.90;;;;;;5044129;28;20450;-67
2021/07/19 05:41:32;;;;;;;12.20;7.30;;;16.60;99.90;;;;;;5050270;28;20452;-67
2021/07/19 05:43:58;;;;;;;9.13;8.17;;;16.80;99.90;;;;;;5051168;28;20472;-67
2021/07/19 05:46:25;;;;;;;9.23;8.23;;;16.80;99.90;;;;;;5045141;28;20433;-68
2021/07/19 05:48:53;;;;;;;9.80;8.10;;;16.90;99.90;;;;;;5054147;28;20881;-68
2021/07/19 05:51:20;;;;;;;10.23;7.63;;;17.00;99.90;;;;;;5054156;28;20432;-68
2021/07/19 05:53:47;;;;;;;12.80;7.60;;;17.10;99.90;;;;;;5037787;28;20430;-67
2021/07/19 05:56:14;;;;;;;10.43;7.50;;;17.10;99.90;;;;;;5039175;28;20586;-67
2021/07/19 05:58:42;;;;;;;10.80;8.80;;;17.10;99.90;;;;;;5048183;28;20452;-67
2021/07/19 06:01:09;;;;;;;10.37;8.23;;;17.20;99.90;;;;;;5033999;28;20464;-68
2021/07/19 06:03:36;;;;;;;11.93;8.87;;;17.30;99.90;;;;;;5035153;28;20442;-68
2021/07/19 06:06:03;;;;;;;9.13;7.30;;;17.40;99.90;;;;;;5034023;28;20499;-68
2021/07/19 06:08:30;;;;;;;10.70;8.37;;;17.50;99.90;;;;;;5034710;28;20446;-68
2021/07/19 06:10:58;;;;;;;10.80;9.03;;;17.60;99.90;;;;;;5033898;28;20836;-67
2021/07/19 06:13:25;;;;;;;9.73;8.10;;;17.60;99.90;;;;;;5049053;28;20441;-68
2021/07/19 06:15:54;;;;;;;10.67;8.60;;;17.60;99.90;;;;;;5053815;28;20923;-68
2021/07/19 06:18:21;;;;;;;10.30;8.03;;;17.70;99.90;;;;;;5038933;28;20474;-67
2021/07/19 06:20:48;;;;;;;9.80;7.90;;;17.80;99.90;;;;;;5033785;28;20924;-67
2021/07/19 06:23:15;;;;;;;10.77;8.47;;;17.90;99.90;;;;;;5046253;28;20838;-67
2021/07/19 06:25:42;;;;;;;11.97;8.00;;;18.00;99.90;;;;;;5053705;28;20433;-67
2021/07/19 06:28:11;;;;;;;11.40;8.67;;;18.00;99.90;;;;;;5039757;28;20914;-68
2021/07/19 06:30:38;;;;;;;10.73;8.63;;;18.10;99.90;;;;;;5041502;28;20476;-68
2021/07/19 06:33:07;;;;;;;11.63;7.60;;;18.10;99.90;;;;;;5038706;28;20491;-67
2021/07/19 06:35:34;;;;;;;10.83;7.80;;;18.20;99.90;;;;;;5053410;28;20486;-67
2021/07/19 06:38:01;;;;;;;11.33;8.40;;;18.40;99.90;;;;;;5048181;28;20495;-68
2021/07/19 06:40:28;;;;;;;10.87;8.47;;;18.50;99.90;;;;;;5033683;28;20445;-67
2021/07/19 06:42:55;;;;;;;15.00;9.37;;;18.60;99.90;;;;;;5036019;28;20449;-68
2021/07/19 06:45:22;;;;;;;11.53;8.53;;;18.80;99.90;;;;;;5052751;28;20533;-68
2021/07/19 06:47:49;;;;;;;11.77;9.33;;;18.90;99.90;;;;;;5051668;28;20437;-69
2021/07/19 06:50:18;;;;;;;11.97;7.97;;;19.10;99.90;;;;;;5050910;28;20537;-68
2021/07/19 06:52:45;;;;;;;13.17;10.00;;;19.20;99.90;;;;;;5051600;28;20444;-68
2021/07/19 06:55:12;;;;;;;13.63;8.80;;;19.30;99.90;;;;;;5051015;28;20476;-68
2021/07/19 06:57:40;;;;;;;11.93;8.83;;;19.40;99.90;;;;;;5052881;28;20526;-68
2021/07/19 07:00:11;;;;;;;11.50;8.00;;;19.60;99.90;;;;;;5036447;28;20951;-68
2021/07/19 07:02:38;;;;;;;10.03;7.87;;;19.70;99.90;;;;;;5038786;28;20440;-68
2021/07/19 07:05:06;;;;;;;9.43;8.33;;;19.80;99.90;;;;;;5033108;28;20864;-68
2021/07/19 07:07:34;;;;;;;11.90;8.30;;;19.90;99.90;;;;;;5033540;28;20469;-68
2021/07/19 07:10:02;;;;;;;9.07;8.07;;;20.00;99.90;;;;;;5032637;28;20485;-68
2021/07/19 07:12:29;;;;;;;10.23;8.00;;;20.20;99.90;;;;;;5032440;28;20480;-68
2021/07/19 07:14:56;;;;;;;11.13;8.70;;;20.20;99.90;;;;;;5032922;28;20526;-68
2021/07/19 07:17:23;;;;;;;9.77;7.83;;;20.30;99.90;;;;;;5042056;28;20468;-69
2021/07/19 07:19:51;;;;;;;14.43;9.50;;;20.50;99.90;;;;;;5052818;28;20527;-68
2021/07/19 07:22:19;;;;;;;15.87;10.90;;;20.60;99.90;;;;;;5049171;28;20446;-68
2021/07/19 07:24:48;;;;;;;17.30;11.70;;;20.60;99.90;;;;;;5033999;28;20528;-68
2021/07/19 07:27:17;;;;;;;12.70;10.00;;;20.80;99.90;;;;;;5038899;28;20907;-68
2021/07/19 07:29:44;;;;;;;11.73;9.70;;;20.90;99.90;;;;;;5032667;28;20485;-68
2021/07/19 07:32:11;;;;;;;15.90;11.07;;;21.00;99.90;;;;;;5032775;28;20429;-68
2021/07/19 07:34:38;;;;;;;13.10;9.23;;;21.10;99.60;;;;;;5032834;28;20524;-68
2021/07/19 07:37:05;;;;;;;12.70;9.23;;;21.20;99.90;;;;;;5032646;28;20476;-68
2021/07/19 07:39:32;;;;;;;14.27;10.63;;;21.30;99.90;;;;;;5032717;28;20473;-69
2021/07/19 07:42:01;;;;;;;17.37;10.20;;;21.40;99.90;;;;;;5033088;28;20529;-68
2021/07/19 07:44:28;;;;;;;12.67;9.10;;;21.60;99.90;;;;;;5032810;28;21032;-69
2021/07/19 07:46:55;;;;;;;10.47;8.17;;;21.70;99.30;;;;;;5032542;28;20434;-68
2021/07/19 07:49:22;;;;;;;11.97;8.90;;;21.80;98.30;;;;;;5032606;28;20576;-66
2021/07/19 07:51:49;;;;;;;16.07;9.60;;;21.90;98.10;;;;;;5032441;28;20496;-65
2021/07/19 07:54:17;;;;;;;10.70;9.30;;;22.00;98.30;;;;;;5032667;28;20532;-68
2021/07/19 07:56:44;;;;;;;13.20;9.73;;;22.10;98.30;;;;;;5050188;28;20923;-68
2021/07/19 07:59:12;;;;;;;10.67;8.47;;;22.20;98.40;;;;;;5056439;28;20523;-67
2021/07/19 08:01:39;;;;;;;12.70;10.40;;;22.40;98.30;;;;;;5053789;28;20791;-67
2021/07/19 08:04:06;;;;;;;11.67;9.90;;;22.50;97.60;;;;;;5056109;28;20861;-67
2021/07/19 08:06:33;;;;;;;12.30;9.80;;;22.60;95.60;;;;;;5040605;28;20520;-69
2021/07/19 08:09:00;;;;;;;10.03;8.90;;;22.60;95.90;;;;;;5035110;28;20781;-68
2021/07/19 08:11:27;;;;;;;14.00;10.37;;;22.70;96.10;;;;;;5047614;28;20891;-68
2021/07/19 08:13:54;;;;;;;13.97;9.30;;;22.80;95.90;;;;;;5055297;28;20433;-68
2021/07/19 08:16:22;;;;;;;15.90;10.03;;;23.00;95.70;;;;;;5051848;28;20444;-69
2021/07/19 08:18:49;;;;;;;12.87;9.50;;;23.10;95.00;;;;;;5054957;28;20555;-68
2021/07/19 08:21:16;;;;;;;11.20;8.70;;;23.10;93.90;;;;;;5051219;28;20540;-68
2021/07/19 08:23:43;;;;;;;15.33;9.43;;;23.20;94.40;;;;;;5054611;28;20532;-68
2021/07/19 08:26:11;;;;;;;10.33;8.87;;;23.30;91.70;;;;;;5054858;28;20449;-68
2021/07/19 08:28:38;;;;;;;12.00;9.47;;;23.30;92.90;;;;;;5041739;28;20483;-68
2021/07/19 08:31:05;;;;;;;13.37;10.27;;;23.40;93.50;;;;;;5034697;28;20565;-69
2021/07/19 08:33:34;;;;;;;14.13;9.37;;;23.50;93.80;;;;;;5035096;28;20526;-68
2021/07/19 08:36:01;;;;;;;13.17;9.50;;;23.70;93.80;;;;;;5034605;28;20459;-69
2021/07/19 08:38:28;;;;;;;13.37;9.17;;;23.80;92.90;;;;;;5038140;28;20465;-68
2021/07/19 08:40:57;;;;;;;11.70;8.90;;;23.80;93.20;;;;;;5038012;28;20505;-68
2021/07/19 08:43:24;;;;;;;11.77;9.60;;;24.00;92.50;;;;;;5044059;28;20584;-68
2021/07/19 08:45:51;;;;;;;10.77;9.67;;;24.10;92.30;;;;;;5054250;28;20513;-70
2021/07/19 08:48:18;;;;;;;11.13;9.90;;;24.30;92.00;;;;;;5045032;28;20475;-68
2021/07/19 08:50:47;;;;;;;15.43;12.83;;;24.40;91.00;;;;;;5034003;28;20572;-68
2021/07/19 08:53:15;;;;;;;12.00;9.90;;;24.50;91.30;;;;;;5034041;28;20445;-68
2021/07/19 08:55:46;;;;;;;14.80;9.47;;;24.60;91.30;;;;;;5033446;28;20437;-69
2021/07/19 08:58:15;;;;;;;9.97;8.93;;;24.60;91.20;;;;;;5034272;28;20450;-69
2021/07/19 09:00:42;;;;;;;11.13;8.73;;;24.80;92.00;;;;;;5032795;28;20497;-68
2021/07/19 09:03:09;;;;;;;12.20;9.47;;;24.90;92.10;;;;;;5032915;28;20533;-68
2021/07/19 09:05:38;;;;;;;11.03;9.13;;;25.00;91.30;;;;;;5034923;28;20441;-68
2021/07/19 09:08:07;;;;;;;10.83;8.57;;;25.10;91.60;;;;;;5031555;28;21023;-68
2021/07/19 09:10:34;;;;;;;12.70;9.03;;;25.30;91.70;;;;;;5032540;28;20906;-68
2021/07/19 09:13:01;;;;;;;11.53;9.43;;;25.40;91.10;;;;;;5034879;28;20528;-68
2021/07/19 09:15:34;;;;;;;9.30;8.40;;;25.50;90.80;;;;;;5033532;28;20520;-68
2021/07/19 09:18:04;;;;;;;10.80;9.17;;;25.60;88.90;;;;;;5034256;28;20556;-68
2021/07/19 09:20:33;;;;;;;9.23;8.23;;;25.70;88.30;;;;;;5031608;28;20449;-68
2021/07/19 09:23:00;;;;;;;10.17;7.67;;;25.80;88.60;;;;;;5032644;28;20476;-68
2021/07/19 09:25:29;;;;;;;9.63;8.60;;;25.90;87.20;;;;;;5032667;28;20429;-68
2021/07/19 09:27:58;;;;;;;11.10;8.20;;;26.00;88.30;;;;;;5035206;28;20521;-69
2021/07/19 09:30:27;;;;;;;10.57;8.20;;;26.10;88.30;;;;;;5033191;28;21006;-68
2021/07/19 09:32:56;;;;;;;8.27;7.40;;;26.20;84.90;;;;;;5031425;28;20448;-69
2021/07/19 09:35:23;;;;;;;10.50;8.10;;;26.30;82.70;;;;;;5034134;28;20537;-69
2021/07/19 09:37:52;;;;;;;9.90;8.20;;;26.40;82.50;;;;;;5032277;28;20517;-68
2021/07/19 09:40:25;;;;;;;10.03;9.00;;;26.40;84.50;;;;;;5033810;28;20453;-67
2021/07/19 09:42:54;;;;;;;11.10;8.77;;;26.50;85.60;;;;;;5030286;28;20441;-68
2021/07/19 09:45:26;;;;;;;10.20;6.93;;;26.60;84.90;;;;;;5033162;28;20441;-69
2021/07/19 09:48:01;;;;;;;11.03;7.00;;;26.70;83.10;;;;;;5032144;28;20469;-69
2021/07/19 09:50:38;;;;;;;10.00;7.93;;;26.80;81.50;;;;;;5035176;28;20567;-69
2021/07/19 09:53:05;;;;;;;10.57;7.20;;;26.80;82.30;;;;;;5034158;28;20453;-68
2021/07/19 09:55:32;;;;;;;9.50;8.50;;;27.00;80.70;;;;;;5033912;28;20514;-68
2021/07/19 09:58:02;;;;;;;8.90;7.00;;;27.00;80.00;;;;;;5031739;28;20442;-68
2021/07/19 10:00:31;;;;;;;8.20;7.10;;;27.10;78.10;;;;;;5033434;28;20530;-69
2021/07/19 10:03:10;;;;;;;9.40;7.70;;;27.10;77.50;;;;;;5030754;28;20492;-69
2021/07/19 10:05:37;;;;;;;10.20;6.80;;;27.10;75.00;;;;;;5035193;28;20453;-69
2021/07/19 10:08:05;;;;;;;8.07;7.27;;;27.30;77.00;;;;;;5043013;28;20531;-69
2021/07/19 10:10:34;;;;;;;9.00;7.43;;;27.40;75.70;;;;;;5037606;28;20496;-69
2021/07/19 10:13:04;;;;;;;9.20;7.60;;;27.40;74.40;;;;;;5029627;28;20465;-69
2021/07/19 10:15:32;;;;;;;9.93;8.87;;;27.60;75.80;;;;;;5045996;28;20443;-68
2021/07/19 10:18:03;;;;;;;9.23;8.33;;;27.70;75.80;;;;;;5048567;28;20552;-68
2021/07/19 10:20:31;;;;;;;11.80;9.67;;;27.80;74.30;;;;;;5031256;28;20444;-69
2021/07/19 10:22:58;;;;;;;12.20;8.60;;;27.90;72.30;;;;;;5041169;28;20439;-70
2021/07/19 10:25:29;;;;;;;11.10;9.83;;;27.90;70.30;;;;;;5034518;28;20431;-69
2021/07/19 10:27:57;;;;;;;16.67;9.67;;;27.90;68.40;;;;;;5035422;28;20452;-69
2021/07/19 10:30:29;;;;;;;12.27;10.20;;;27.90;67.40;;;;;;5031866;28;20593;-69
2021/07/19 10:33:00;;;;;;;12.43;10.77;;;28.00;66.10;;;;;;5032073;28;20499;-69
2021/07/19 10:35:28;;;;;;;19.57;12.57;;;28.10;60.00;;;;;;5046000;28;20468;-69
2021/07/19 10:37:59;;;;;;;10.17;9.07;;;28.00;57.70;;;;;;5048255;28;20445;-68
2021/07/19 10:40:31;;;;;;;12.60;8.00;;;28.00;61.80;;;;;;5049032;28;20443;-69
2021/07/19 10:43:07;;;;;;;13.50;8.90;;;28.10;61.50;;;;;;5035619;28;20446;-69
2021/07/19 10:45:44;;;;;;;10.63;8.20;;;28.10;63.00;;;;;;5032039;28;20535;-69
2021/07/19 10:48:21;;;;;;;10.30;8.37;;;28.20;66.90;;;;;;5042490;28;20868;-69
2021/07/19 10:50:49;;;;;;;8.40;7.40;;;28.40;67.10;;;;;;5048843;28;20487;-70
2021/07/19 10:53:19;;;;;;;9.83;8.50;;;28.50;65.90;;;;;;5031673;28;20519;-68
2021/07/19 10:55:57;;;;;;;10.20;8.80;;;28.70;64.50;;;;;;5031895;28;20452;-69
2021/07/19 10:58:29;;;;;;;11.90;8.73;;;28.90;65.70;;;;;;5031172;28;20472;-69
2021/07/19 11:00:57;;;;;;;10.30;9.20;;;29.20;67.00;;;;;;5032019;28;20499;-68
2021/07/19 11:03:24;;;;;;;10.60;9.50;;;29.50;65.40;;;;;;5045059;28;20440;-68
2021/07/19 11:05:53;;;;;;;11.50;8.33;;;29.70;62.80;;;;;;5048995;28;20523;-69
2021/07/19 11:08:22;;;;;;;9.37;8.47;;;29.70;59.80;;;;;;5048512;28;20468;-69
2021/07/19 11:10:50;;;;;;;9.83;8.33;;;29.60;60.60;;;;;;5035834;28;20488;-68
2021/07/19 11:13:31;;;;;;;10.63;9.30;;;29.50;60.60;;;;;;5031368;28;20473;-67
2021/07/19 11:16:00;;;;;;;12.97;8.63;;;29.50;59.10;;;;;;5036954;28;20522;-68
2021/07/19 11:18:29;;;;;;;12.93;9.67;;;29.60;59.10;;;;;;5035855;28;20544;-68
2021/07/19 11:20:58;;;;;;;11.80;9.73;;;29.60;60.10;;;;;;5030890;28;20841;-69
2021/07/19 11:23:28;;;;;;;9.80;8.60;;;29.50;60.00;;;;;;5043416;28;20528;-68
2021/07/19 11:25:56;;;;;;;10.03;9.03;;;29.50;60.80;;;;;;5044157;28;20470;-68
2021/07/19 11:28:25;;;;;;;14.23;7.73;;;29.50;61.00;;;;;;5032735;28;20500;-69
2021/07/19 11:31:08;;;;;;;10.57;9.20;;;29.60;61.00;;;;;;5037420;28;20571;-67
2021/07/19 11:33:38;;;;;;;11.80;9.20;;;29.70;59.80;;;;;;5035283;28;20473;-68
2021/07/19 11:36:17;;;;;;;12.03;9.00;;;29.60;58.70;;;;;;5039118;28;20446;-67
2021/07/19 11:38:45;;;;;;;10.30;8.40;;;29.50;58.80;;;;;;5040967;28;20877;-68
2021/07/19 11:41:16;;;;;;;8.53;7.67;;;29.40;59.00;;;;;;5053190;28;20515;-67
2021/07/19 11:43:44;;;;;;;10.77;8.60;;;29.50;57.80;;;;;;5052337;28;20528;-68
2021/07/19 11:46:13;;;;;;;8.63;7.33;;;29.60;59.40;;;;;;5052754;28;20448;-67
2021/07/19 11:48:43;;;;;;;10.27;8.80;;;29.70;58.90;;;;;;5035532;28;21415;-67
2021/07/19 11:51:10;;;;;;;9.30;7.97;;;29.90;58.90;;;;;;5043953;28;21045;-67
2021/07/19 11:53:43;;;;;;;9.73;7.93;;;29.90;57.30;;;;;;5052252;28;20437;-67
2021/07/19 11:56:11;;;;;;;9.47;8.47;;;29.90;56.20;;;;;;5032923;28;20450;-67
2021/07/19 11:58:42;;;;;;;10.87;7.57;;;29.70;55.90;;;;;;5039273;28;20448;-68
2021/07/19 12:01:11;;;;;;;9.67;7.93;;;29.70;56.90;;;;;;5052227;28;20439;-67
2021/07/19 12:03:40;;;;;;;10.67;7.30;;;29.80;56.70;;;;;;5034516;28;20525;-68
2021/07/19 12:06:09;;;;;;;7.33;6.63;;;29.70;56.10;;;;;;5034940;28;20445;-68
2021/07/19 12:08:36;;;;;;;10.40;7.80;;;29.70;55.70;;;;;;5034910;28;20452;-69
2021/07/19 12:11:06;;;;;;;10.10;9.10;;;29.70;56.00;;;;;;5039936;28;20511;-68
2021/07/19 12:13:35;;;;;;;11.60;7.13;;;29.70;55.60;;;;;;5054827;28;20522;-67
2021/07/19 12:16:03;;;;;;;7.30;6.53;;;29.70;56.70;;;;;;5049499;28;20521;-68
2021/07/19 12:18:32;;;;;;;12.73;7.10;;;29.90;57.30;;;;;;5045002;28;20548;-68
2021/07/19 12:21:02;;;;;;;9.43;8.20;;;30.00;56.90;;;;;;5050275;28;20524;-67
2021/07/19 12:23:40;;;;;;;10.00;7.83;;;30.10;56.70;;;;;;5035178;28;20864;-68
2021/07/19 12:26:07;;;;;;;7.47;6.67;;;30.10;56.90;;;;;;5048599;28;20524;-69
2021/07/19 12:28:34;;;;;;;8.87;7.83;;;30.10;56.40;;;;;;5054812;28;20447;-67
2021/07/19 12:31:17;;;;;;;9.67;7.07;;;30.00;55.10;;;;;;5054396;28;20574;-68
2021/07/19 12:33:44;;;;;;;7.87;7.07;;;29.80;53.90;;;;;;5054812;28;20879;-67
2021/07/19 12:36:12;;;;;;;10.90;7.93;;;29.60;54.10;;;;;;5038378;28;20450;-67
2021/07/19 12:38:40;;;;;;;11.50;7.90;;;29.40;54.70;;;;;;5034658;28;21022;-66
2021/07/19 12:41:11;;;;;;;10.33;8.50;;;29.30;53.30;;;;;;5034922;28;20520;-67
2021/07/19 12:43:38;;;;;;;11.27;8.60;;;29.20;54.50;;;;;;5033615;28;20999;-67
2021/07/19 12:46:06;;;;;;;9.20;8.30;;;29.10;55.20;;;;;;5038451;28;20516;-68
2021/07/19 12:48:33;;;;;;;8.43;7.53;;;29.00;55.80;;;;;;5052967;28;20523;-68